createdAt,value
2018-10-16T00:00:18.571Z,17.23
2018-10-16T00:02:46.681Z,17.82
2018-10-16T00:05:15.120Z,15.68
2018-10-16T00:07:42.773Z,15.85
2018-10-16T00:12:44.753Z,17.90
2018-10-16T00:15:12.376Z,15.10
2018-10-16T00:17:40.036Z,18.02
2018-10-16T00:20:07.755Z,17.80
2018-10-16T00:22:35.379Z,15.70
2018-10-16T00:25:03.023Z,15.90
2018-10-16T00:27:30.588Z,15.83
2018-10-16T00:29:58.247Z,16.70
2018-10-16T00:32:25.898Z,15.00
2018-10-16T00:34:53.481Z,15.30
2018-10-16T00:37:21.019Z,16.37
2018-10-16T00:39:48.640Z,17.17
2018-10-16T00:42:16.270Z,15.68
2018-10-16T00:44:43.861Z,15.85
2018-10-16T00:47:11.469Z,16.45
2018-10-16T00:49:39.075Z,15.08
2018-10-16T00:52:06.717Z,15.60
2018-10-16T00:54:34.318Z,13.70
2018-10-16T00:57:01.945Z,15.80
2018-10-16T00:59:29.605Z,13.98
2018-10-16T01:01:57.197Z,14.83
2018-10-16T01:04:24.757Z,15.05
2018-10-16T01:06:52.368Z,14.00
2018-10-16T01:09:20.006Z,15.23
2018-10-16T01:11:47.579Z,14.38
2018-10-16T01:14:15.257Z,14.70
2018-10-16T01:16:42.857Z,13.83
2018-10-16T01:19:10.469Z,13.28
2018-10-16T01:21:38.023Z,13.65
2018-10-16T01:24:05.700Z,15.98
2018-10-16T01:26:33.307Z,15.03
2018-10-16T01:29:00.885Z,14.45
2018-10-16T01:31:28.459Z,15.60
2018-10-16T01:33:56.064Z,17.92
2018-10-16T01:36:23.724Z,19.20
2018-10-16T01:38:51.338Z,17.67
2018-10-16T01:41:18.938Z,17.37
2018-10-16T01:43:46.560Z,16.07
2018-10-16T01:46:14.168Z,17.17
2018-10-16T01:48:41.793Z,16.52
2018-10-16T01:51:09.402Z,17.37
2018-10-16T01:53:36.997Z,16.93
2018-10-16T01:56:04.674Z,17.60
2018-10-16T01:58:32.253Z,16.37
2018-10-16T02:00:59.879Z,16.20
2018-10-16T02:03:27.475Z,16.75
2018-10-16T02:05:55.058Z,16.10
2018-10-16T02:08:22.620Z,15.38
2018-10-16T02:10:50.289Z,17.23
2018-10-16T02:13:17.970Z,15.83
2018-10-16T02:15:45.581Z,16.57
2018-10-16T02:18:13.178Z,15.78
2018-10-16T02:20:40.744Z,15.10
2018-10-16T02:23:08.368Z,15.90
2018-10-16T02:25:35.992Z,16.23
2018-10-16T02:28:03.780Z,16.17
2018-10-16T02:30:31.368Z,15.63
2018-10-16T02:32:58.978Z,15.23
2018-10-16T02:35:26.581Z,14.85
2018-10-16T02:37:54.180Z,15.90
2018-10-16T02:40:21.834Z,16.05
2018-10-16T02:42:49.401Z,16.62
2018-10-16T02:45:17.016Z,14.90
2018-10-16T02:47:44.584Z,17.98
2018-10-16T02:50:12.248Z,15.60
2018-10-16T02:52:39.829Z,15.80
2018-10-16T02:55:08.579Z,15.05
2018-10-16T02:57:36.201Z,15.50
2018-10-16T03:00:04.417Z,16.07
2018-10-16T03:02:32.003Z,15.90
2018-10-16T03:04:59.583Z,15.40
2018-10-16T03:07:27.173Z,16.87
2018-10-16T03:09:54.739Z,18.17
2018-10-16T03:12:22.372Z,16.93
2018-10-16T03:14:49.941Z,14.63
2018-10-16T03:17:17.534Z,15.72
2018-10-16T03:19:45.112Z,16.67
2018-10-16T03:22:12.674Z,14.95
2018-10-16T03:24:40.259Z,15.35
2018-10-16T03:27:07.845Z,18.23
2018-10-16T03:29:35.495Z,17.98
2018-10-16T03:32:03.178Z,20.43
2018-10-16T03:34:30.790Z,25.68
2018-10-16T03:36:58.367Z,29.25
2018-10-16T03:39:26.006Z,30.62
2018-10-16T03:41:53.588Z,31.65
2018-10-16T03:44:21.226Z,30.32
2018-10-16T03:46:48.843Z,32.90
2018-10-16T03:49:16.402Z,37.25
2018-10-16T03:51:43.986Z,37.50
2018-10-16T03:54:11.548Z,37.40
2018-10-16T03:56:39.178Z,35.85
2018-10-16T03:59:06.789Z,31.87
2018-10-16T04:01:34.377Z,32.58
2018-10-16T04:04:01.986Z,33.88
2018-10-16T04:06:29.647Z,30.88
2018-10-16T04:08:57.246Z,27.30
2018-10-16T04:11:24.889Z,29.18
2018-10-16T04:13:52.522Z,27.85
2018-10-16T04:16:20.152Z,30.52
2018-10-16T04:18:47.887Z,29.37
2018-10-16T04:21:15.487Z,29.05
2018-10-16T04:23:43.584Z,28.02
2018-10-16T04:26:11.704Z,30.15
2018-10-16T04:28:39.419Z,29.85
2018-10-16T04:31:08.063Z,31.00
2018-10-16T04:33:35.663Z,29.77
2018-10-16T04:36:03.299Z,29.40
2018-10-16T04:38:30.915Z,28.45
2018-10-16T04:40:58.521Z,26.75
2018-10-16T04:43:26.165Z,27.35
2018-10-16T04:45:53.770Z,30.95
2018-10-16T04:48:21.796Z,29.45
2018-10-16T04:50:49.385Z,27.40
2018-10-16T04:53:17.016Z,28.92
2018-10-16T04:55:44.642Z,28.57
2018-10-16T04:58:12.274Z,27.05
2018-10-16T05:00:39.871Z,26.23
2018-10-16T05:03:07.483Z,27.95
2018-10-16T05:05:35.102Z,30.25
2018-10-16T05:08:02.751Z,31.00
2018-10-16T05:10:30.366Z,34.20
2018-10-16T05:12:57.976Z,27.22
2018-10-16T05:15:31.548Z,24.12
2018-10-16T05:17:59.167Z,22.50
2018-10-16T05:20:26.845Z,21.70
2018-10-16T05:22:55.208Z,20.43
2018-10-16T05:25:23.283Z,22.87
2018-10-16T05:27:50.890Z,19.98
2018-10-16T05:30:18.504Z,22.33
2018-10-16T05:32:46.350Z,19.17
2018-10-16T05:35:13.994Z,20.30
2018-10-16T05:37:41.598Z,18.07
2018-10-16T05:40:09.929Z,19.23
2018-10-16T05:42:38.288Z,18.83
2018-10-16T05:45:07.049Z,17.87
2018-10-16T05:47:34.686Z,18.30
2018-10-16T05:50:02.314Z,18.50
2018-10-16T05:52:29.901Z,20.00
2018-10-16T05:54:57.532Z,18.40
2018-10-16T05:57:25.358Z,20.53
2018-10-16T06:00:58.958Z,21.20
2018-10-16T06:03:26.546Z,20.93
2018-10-16T06:05:54.118Z,20.93
2018-10-16T06:08:21.727Z,18.53
2018-10-16T06:10:49.365Z,18.73
2018-10-16T06:13:16.887Z,19.40
2018-10-16T06:15:44.472Z,18.33
2018-10-16T06:18:12.074Z,19.63
2018-10-16T06:20:39.706Z,18.70
2018-10-16T06:23:07.349Z,21.23
2018-10-16T06:25:34.928Z,20.67
2018-10-16T06:28:20.863Z,20.30
2018-10-16T06:30:48.491Z,19.70
2018-10-16T06:33:18.353Z,18.43
2018-10-16T06:35:45.906Z,18.40
2018-10-16T06:38:13.508Z,17.50
2018-10-16T06:40:41.110Z,20.10
2018-10-16T06:43:08.697Z,18.30
2018-10-16T06:45:36.272Z,18.83
2018-10-16T06:48:04.491Z,19.37
2018-10-16T06:50:31.893Z,18.70
2018-10-16T06:52:59.544Z,19.10
2018-10-16T06:55:27.142Z,18.50
2018-10-16T06:57:54.718Z,17.93
2018-10-16T07:00:22.417Z,16.80
2018-10-16T07:02:49.923Z,17.80
2018-10-16T07:05:17.502Z,16.97
2018-10-16T07:07:45.095Z,18.13
2018-10-16T07:10:12.711Z,19.70
2018-10-16T07:12:40.318Z,18.00
2018-10-16T07:15:08.400Z,18.67
2018-10-16T07:17:35.935Z,17.80
2018-10-16T07:20:04.063Z,17.37
2018-10-16T07:22:31.693Z,18.87
2018-10-16T07:24:59.280Z,17.03
2018-10-16T07:27:26.861Z,17.73
2018-10-16T07:29:54.540Z,19.90
2018-10-16T07:32:22.056Z,20.67
2018-10-16T07:34:49.650Z,22.27
2018-10-16T07:37:17.225Z,21.97
2018-10-16T07:39:44.783Z,21.30
2018-10-16T07:42:12.393Z,22.43
2018-10-16T07:44:40.017Z,21.83
2018-10-16T07:47:07.699Z,21.67
2018-10-16T07:49:35.337Z,20.67
2018-10-16T07:52:02.923Z,19.07
2018-10-16T07:54:30.499Z,19.40
2018-10-16T07:56:58.118Z,24.07
2018-10-16T07:59:25.697Z,19.50
2018-10-16T08:01:53.283Z,22.10
2018-10-16T08:04:20.930Z,20.50
2018-10-16T08:06:48.500Z,20.83
2018-10-16T08:09:16.482Z,19.30
2018-10-16T08:11:46.133Z,20.70
2018-10-16T08:14:14.901Z,21.60
2018-10-16T08:16:43.817Z,21.40
2018-10-16T08:19:13.064Z,19.90
2018-10-16T08:21:40.714Z,18.80
2018-10-16T08:24:08.613Z,18.33
2018-10-16T08:26:36.206Z,18.93
2018-10-16T08:29:04.260Z,17.93
2018-10-16T08:31:31.952Z,16.97
2018-10-16T08:33:59.518Z,16.97
2018-10-16T08:36:29.946Z,15.70
2018-10-16T08:39:05.079Z,14.93
2018-10-16T08:41:36.706Z,15.10
2018-10-16T08:44:30.310Z,15.23
2018-10-16T08:47:09.064Z,15.60
2018-10-16T08:49:47.963Z,14.80
2018-10-16T08:52:15.561Z,15.50
2018-10-16T08:54:43.150Z,14.33
2018-10-16T08:57:10.734Z,14.70
2018-10-16T08:59:38.339Z,13.40
2018-10-16T09:02:05.930Z,14.77
2018-10-16T09:04:33.490Z,14.40
2018-10-16T09:07:01.228Z,15.10
2018-10-16T09:09:28.814Z,13.87
2018-10-16T09:11:56.408Z,15.90
2018-10-16T09:14:24.039Z,13.63
2018-10-16T09:16:51.598Z,13.13
2018-10-16T09:19:19.157Z,14.00
2018-10-16T09:21:46.710Z,12.60
2018-10-16T09:24:14.281Z,17.50
2018-10-16T09:26:41.868Z,13.00
2018-10-16T09:29:09.414Z,14.00
2018-10-16T09:31:37.026Z,13.77
2018-10-16T09:34:04.665Z,13.33
2018-10-16T09:36:32.231Z,13.60
2018-10-16T09:38:59.794Z,11.33
2018-10-16T09:41:27.362Z,13.27
2018-10-16T09:43:54.930Z,13.27
2018-10-16T09:46:23.635Z,12.10
2018-10-16T09:48:53.009Z,12.50
2018-10-16T09:51:20.597Z,12.53
2018-10-16T09:53:48.182Z,11.83
2018-10-16T09:56:15.763Z,11.57
2018-10-16T09:58:43.332Z,12.20
2018-10-16T10:01:16.343Z,11.60
2018-10-16T10:03:43.954Z,11.90
2018-10-16T10:06:11.515Z,12.10
2018-10-16T10:08:39.099Z,12.53
2018-10-16T10:11:06.763Z,11.47
2018-10-16T10:13:34.319Z,12.13
2018-10-16T10:16:01.902Z,12.57
2018-10-16T10:18:29.455Z,11.67
2018-10-16T10:20:57.040Z,10.70
2018-10-16T10:23:24.801Z,11.10
2018-10-16T10:25:52.287Z,10.90
2018-10-16T10:28:19.855Z,12.17
2018-10-16T10:30:47.398Z,11.60
2018-10-16T10:33:15.044Z,11.43
2018-10-16T10:35:42.640Z,11.50
2018-10-16T10:38:10.210Z,10.80
2018-10-16T10:40:37.782Z,11.03
2018-10-16T10:43:05.717Z,9.33
2018-10-16T10:45:33.317Z,10.43
2018-10-16T10:48:00.858Z,11.67
2018-10-16T10:50:28.557Z,10.13
2018-10-16T10:52:56.028Z,9.40
2018-10-16T10:55:23.622Z,10.73
2018-10-16T10:57:51.224Z,11.13
2018-10-16T11:00:18.820Z,10.30
2018-10-16T11:02:47.622Z,10.90
2018-10-16T11:05:15.191Z,11.10
2018-10-16T11:07:42.714Z,9.67
2018-10-16T11:10:11.800Z,10.83
2018-10-16T11:12:39.518Z,10.70
2018-10-16T11:15:14.019Z,10.93
2018-10-16T11:17:41.502Z,10.90
2018-10-16T11:20:11.022Z,10.30
2018-10-16T11:22:38.614Z,10.70
2018-10-16T11:25:07.019Z,11.70
2018-10-16T11:27:34.593Z,11.57
2018-10-16T11:30:02.197Z,11.20
2018-10-16T11:32:29.780Z,11.63
2018-10-16T11:34:57.369Z,11.60
2018-10-16T11:37:24.949Z,10.80
2018-10-16T11:39:52.477Z,10.30
2018-10-16T11:42:20.061Z,10.73
2018-10-16T11:44:47.660Z,11.37
2018-10-16T11:47:15.255Z,11.27
2018-10-16T11:49:42.884Z,11.60
2018-10-16T11:52:10.445Z,11.13
2018-10-16T11:54:38.070Z,11.73
2018-10-16T11:57:05.637Z,11.43
2018-10-16T11:59:33.193Z,11.53
2018-10-16T12:02:00.830Z,10.70
2018-10-16T12:04:28.375Z,11.10
2018-10-16T12:06:55.964Z,11.10
2018-10-16T12:09:23.491Z,11.07
2018-10-16T12:11:51.377Z,10.70
2018-10-16T12:14:19.399Z,11.83
2018-10-16T12:16:53.565Z,12.10
2018-10-16T12:19:24.902Z,11.27
2018-10-16T12:21:52.490Z,10.83
2018-10-16T12:24:20.043Z,11.83
2018-10-16T12:26:47.652Z,11.03
2018-10-16T12:29:15.217Z,11.10
2018-10-16T12:31:42.807Z,11.00
2018-10-16T12:34:10.386Z,10.77
2018-10-16T12:36:37.943Z,10.90
2018-10-16T12:39:07.362Z,11.53
2018-10-16T12:41:34.894Z,11.33
2018-10-16T12:44:02.502Z,11.97
2018-10-16T12:46:30.094Z,13.00
2018-10-16T12:48:57.669Z,10.97
2018-10-16T12:51:25.234Z,11.10
2018-10-16T12:53:52.810Z,11.70
2018-10-16T12:56:20.359Z,11.10
2018-10-16T12:58:47.957Z,12.10
2018-10-16T13:01:15.579Z,11.27
2018-10-16T13:03:43.149Z,11.97
2018-10-16T13:06:10.718Z,12.40
2018-10-16T13:08:38.328Z,11.10
2018-10-16T13:11:05.903Z,13.20
2018-10-16T13:13:33.504Z,11.50
2018-10-16T13:16:01.150Z,14.23
2018-10-16T13:18:28.655Z,14.10
2018-10-16T13:20:56.252Z,13.60
2018-10-16T13:23:23.900Z,13.33
2018-10-16T13:25:51.464Z,12.60
2018-10-16T13:28:19.032Z,11.40
2018-10-16T13:30:46.598Z,13.27
2018-10-16T13:33:14.156Z,12.70
2018-10-16T13:35:41.774Z,12.80
2018-10-16T13:38:09.392Z,13.07
2018-10-16T13:40:36.957Z,11.50
2018-10-16T13:43:04.730Z,12.87
2018-10-16T13:45:32.362Z,11.97
2018-10-16T13:47:59.970Z,12.37
2018-10-16T13:50:27.553Z,11.27
2018-10-16T13:52:55.146Z,11.53
2018-10-16T13:55:22.729Z,11.73
2018-10-16T13:57:50.337Z,10.90
2018-10-16T14:00:20.028Z,11.67
2018-10-16T14:02:48.951Z,11.20
2018-10-16T14:05:16.621Z,11.60
2018-10-16T14:07:44.275Z,11.87
2018-10-16T14:10:12.975Z,13.07
2018-10-16T14:12:41.725Z,13.00
2018-10-16T14:15:10.079Z,12.27
2018-10-16T14:17:37.877Z,11.87
2018-10-16T14:20:06.080Z,12.77
2018-10-16T14:22:33.658Z,11.47
2018-10-16T14:25:01.231Z,10.33
2018-10-16T14:27:28.963Z,11.90
2018-10-16T14:29:56.619Z,11.57
2018-10-16T14:32:24.335Z,12.27
2018-10-16T14:34:51.850Z,12.13
2018-10-16T14:37:19.475Z,12.87
2018-10-16T14:39:47.091Z,11.20
2018-10-16T14:42:14.587Z,13.13
2018-10-16T14:44:42.155Z,12.73
2018-10-16T14:47:09.796Z,12.67
2018-10-16T14:49:37.372Z,12.17
2018-10-16T14:52:05.255Z,11.90
2018-10-16T14:54:32.879Z,12.37
2018-10-16T14:57:00.457Z,11.77
2018-10-16T14:59:28.027Z,11.80
2018-10-16T15:01:55.688Z,11.90
2018-10-16T15:04:23.282Z,11.73
2018-10-16T15:06:50.900Z,11.97
2018-10-16T15:09:18.506Z,13.27
2018-10-16T15:11:46.100Z,10.60
2018-10-16T15:14:13.757Z,10.77
2018-10-16T15:16:41.381Z,13.00
2018-10-16T15:19:09.103Z,12.40
2018-10-16T15:21:36.714Z,13.40
2018-10-16T15:24:04.560Z,13.23
2018-10-16T15:26:32.113Z,14.00
2018-10-16T15:28:59.693Z,14.27
2018-10-16T15:31:27.298Z,12.73
2018-10-16T15:33:54.937Z,14.10
2018-10-16T15:36:22.562Z,12.07
2018-10-16T15:38:50.236Z,12.73
2018-10-16T15:41:18.260Z,11.97
2018-10-16T15:43:45.877Z,12.10
2018-10-16T15:46:13.498Z,11.20
2018-10-16T15:48:41.131Z,12.30
2018-10-16T15:51:08.757Z,12.23
2018-10-16T15:53:36.435Z,11.87
2018-10-16T15:56:04.135Z,13.83
2018-10-16T15:58:31.754Z,13.40
2018-10-16T16:00:59.435Z,14.57
2018-10-16T16:03:27.099Z,13.50
2018-10-16T16:05:54.735Z,13.20
2018-10-16T16:08:22.356Z,13.90
2018-10-16T16:10:50.004Z,15.37
2018-10-16T16:13:17.600Z,13.93
2018-10-16T16:15:45.308Z,12.43
2018-10-16T16:18:13.043Z,13.60
2018-10-16T16:20:40.642Z,12.20
2018-10-16T16:23:08.273Z,13.10
2018-10-16T16:25:35.954Z,13.83
2018-10-16T16:28:03.745Z,13.50
2018-10-16T16:30:31.401Z,14.10
2018-10-16T16:32:59.055Z,14.27
2018-10-16T16:35:26.716Z,14.00
2018-10-16T16:37:54.349Z,15.43
2018-10-16T16:40:22.046Z,13.70
2018-10-16T16:42:49.746Z,14.20
2018-10-16T16:45:17.427Z,12.60
2018-10-16T16:47:45.110Z,13.03
2018-10-16T16:50:12.911Z,14.20
2018-10-16T16:52:41.240Z,13.30
2018-10-16T16:55:10.428Z,13.67
2018-10-16T16:57:38.104Z,13.10
2018-10-16T17:00:08.837Z,13.67
2018-10-16T17:02:40.127Z,14.80
2018-10-16T17:05:08.943Z,13.43
2018-10-16T17:07:36.807Z,13.33
2018-10-16T17:10:04.958Z,13.33
2018-10-16T17:12:32.879Z,13.10
2018-10-16T17:15:00.657Z,12.80
2018-10-16T17:17:28.359Z,15.77
2018-10-16T17:19:56.055Z,15.47
2018-10-16T17:22:24.035Z,14.43
2018-10-16T17:24:51.936Z,15.63
2018-10-16T17:27:19.887Z,13.57
2018-10-16T17:29:47.629Z,13.47
2018-10-16T17:32:15.507Z,15.30
2018-10-16T17:34:43.213Z,15.20
2018-10-16T17:37:11.087Z,17.87
2018-10-16T17:39:38.795Z,15.20
2018-10-16T17:42:06.514Z,15.67
2018-10-16T17:44:34.285Z,16.00
2018-10-16T17:47:02.073Z,16.13
2018-10-16T17:49:30.435Z,15.67
2018-10-16T17:51:58.231Z,15.90
2018-10-16T17:54:26.002Z,16.43
2018-10-16T17:56:53.611Z,14.90
2018-10-16T17:59:22.422Z,16.20
2018-10-16T18:01:50.152Z,15.10
2018-10-16T18:04:17.710Z,16.87
2018-10-16T18:06:45.367Z,16.93
2018-10-16T18:09:13.107Z,17.30
2018-10-16T18:11:40.550Z,19.13
2018-10-16T18:14:08.637Z,15.37
2018-10-16T18:16:36.416Z,17.43
2018-10-16T18:19:04.138Z,17.20
2018-10-16T18:21:31.768Z,14.80
2018-10-16T18:23:59.380Z,15.90
2018-10-16T18:26:26.957Z,16.30
2018-10-16T18:28:54.626Z,17.07
2018-10-16T18:31:22.250Z,17.43
2018-10-16T18:33:49.855Z,16.80
2018-10-16T18:36:17.496Z,16.50
2018-10-16T18:38:45.159Z,16.67
2018-10-16T18:41:12.809Z,17.10
2018-10-16T18:43:40.399Z,16.70
2018-10-16T18:46:08.388Z,17.33
2018-10-16T18:48:36.246Z,15.90
2018-10-16T18:51:04.680Z,16.63
2018-10-16T18:53:33.130Z,17.53
2018-10-16T18:56:00.846Z,16.40
2018-10-16T18:58:28.552Z,16.17
2018-10-16T19:00:57.380Z,17.20
2018-10-16T19:03:25.076Z,16.70
2018-10-16T19:05:53.497Z,16.77
2018-10-16T19:08:21.235Z,16.30
2018-10-16T19:10:48.934Z,17.23
2018-10-16T19:13:17.544Z,18.83
2018-10-16T19:15:45.358Z,16.60
2018-10-16T19:18:13.146Z,16.80
2018-10-16T19:20:41.181Z,18.30
2018-10-16T19:23:08.928Z,18.50
2018-10-16T19:25:36.683Z,15.17
2018-10-16T19:28:04.500Z,17.13
2018-10-16T19:30:32.288Z,19.60
2018-10-16T19:33:00.062Z,18.67
2018-10-16T19:35:27.823Z,17.27
2018-10-16T19:37:55.602Z,20.63
2018-10-16T19:40:23.355Z,20.73
2018-10-16T19:42:51.197Z,20.43
2018-10-16T19:45:19.024Z,19.20
2018-10-16T19:47:46.711Z,18.97
2018-10-16T19:50:14.435Z,19.97
2018-10-16T19:52:42.268Z,19.00
2018-10-16T19:55:10.013Z,19.40
2018-10-16T19:57:37.798Z,19.57
2018-10-16T20:00:06.748Z,21.20
2018-10-16T20:02:34.522Z,21.97
2018-10-16T20:05:02.483Z,22.53
2018-10-16T20:07:30.228Z,20.60
2018-10-16T20:09:58.023Z,22.67
2018-10-16T20:12:25.814Z,23.53
2018-10-16T20:14:53.547Z,21.20
2018-10-16T20:17:21.310Z,22.70
2018-10-16T20:19:49.787Z,22.53
2018-10-16T20:22:17.634Z,21.20
2018-10-16T20:24:45.655Z,21.90
2018-10-16T20:27:13.397Z,22.47
2018-10-16T20:29:41.109Z,21.33
2018-10-16T20:32:08.828Z,23.13
2018-10-16T20:34:36.767Z,25.30
2018-10-16T20:37:04.514Z,24.83
2018-10-16T20:39:32.214Z,22.57
2018-10-16T20:41:59.997Z,25.77
2018-10-16T20:44:27.910Z,25.53
2018-10-16T20:46:55.582Z,26.90
2018-10-16T20:49:23.256Z,26.57
2018-10-16T20:51:51.972Z,29.27
2018-10-16T20:54:19.584Z,29.40
2018-10-16T20:56:47.220Z,29.20
2018-10-16T20:59:14.838Z,26.57
2018-10-16T21:01:42.405Z,25.13
2018-10-16T21:04:10.025Z,23.60
2018-10-16T21:06:37.723Z,25.50
2018-10-16T21:09:06.211Z,22.27
2018-10-16T21:11:33.818Z,23.00
2018-10-16T21:14:01.435Z,21.57
2018-10-16T21:16:28.993Z,22.93
2018-10-16T21:18:56.558Z,23.47
2018-10-16T21:21:24.127Z,22.30
2018-10-16T21:23:51.665Z,21.73
2018-10-16T21:26:19.289Z,22.17
2018-10-16T21:28:46.851Z,22.80
2018-10-16T21:31:14.487Z,21.80
2018-10-16T21:33:41.987Z,23.03
2018-10-16T21:36:09.585Z,22.50
2018-10-16T21:38:37.108Z,22.57
2018-10-16T21:41:04.770Z,22.43
2018-10-16T21:43:32.338Z,22.95
2018-10-16T21:45:59.885Z,22.13
2018-10-16T21:48:27.461Z,22.10
2018-10-16T21:50:55.006Z,22.00
2018-10-16T21:53:22.572Z,22.90
2018-10-16T21:55:50.169Z,22.50
2018-10-16T21:58:17.723Z,22.67
2018-10-16T22:00:50.997Z,25.20
2018-10-16T22:03:18.666Z,24.83
2018-10-16T22:05:46.232Z,24.45
2018-10-16T22:08:13.912Z,23.80
2018-10-16T22:10:41.460Z,24.20
2018-10-16T22:13:10.023Z,24.30
2018-10-16T22:15:37.512Z,23.87
2018-10-16T22:18:05.206Z,23.38
2018-10-16T22:20:32.778Z,22.20
2018-10-16T22:23:00.489Z,24.97
2018-10-16T22:25:28.076Z,25.00
2018-10-16T22:27:55.680Z,23.83
2018-10-16T22:30:23.259Z,24.27
2018-10-16T22:32:50.807Z,24.12
2018-10-16T22:35:18.386Z,22.93
2018-10-16T22:37:45.990Z,21.65
2018-10-16T22:40:13.576Z,22.67
2018-10-16T22:42:41.133Z,22.87
2018-10-16T22:45:08.869Z,22.48
2018-10-16T22:47:36.447Z,21.73
2018-10-16T22:50:06.345Z,22.13
2018-10-16T22:52:33.913Z,22.80
2018-10-16T22:55:01.588Z,22.07
2018-10-16T22:57:29.138Z,21.15
2018-10-16T22:59:56.721Z,20.08
2018-10-16T23:02:24.321Z,20.80
2018-10-16T23:04:51.881Z,20.80
2018-10-16T23:07:19.484Z,20.88
2018-10-16T23:09:47.005Z,20.35
2018-10-16T23:12:14.613Z,20.82
2018-10-16T23:14:42.139Z,20.92
2018-10-16T23:17:09.858Z,23.38
2018-10-16T23:19:37.323Z,24.60
2018-10-16T23:22:04.875Z,24.05
2018-10-16T23:24:32.501Z,22.60
2018-10-16T23:27:00.058Z,21.12
2018-10-16T23:29:27.629Z,23.45
2018-10-16T23:31:55.228Z,22.30
2018-10-16T23:34:22.763Z,21.87
2018-10-16T23:36:50.379Z,23.87
2018-10-16T23:39:17.966Z,26.65
2018-10-16T23:41:45.481Z,24.05
2018-10-16T23:44:13.118Z,23.52
2018-10-16T23:46:40.657Z,23.95
2018-10-16T23:49:09.103Z,23.32
2018-10-16T23:51:36.656Z,24.12
2018-10-16T23:54:04.665Z,21.82
2018-10-16T23:56:32.230Z,22.35
2018-10-16T23:58:59.850Z,23.25
